Time;durP1;ratioP1;P1;durP2;ratioP2;P2;SDS_P1;SDS_P2;PMS_P1;PMS_P2;Temp;Humidity;BMP_temperature;BMP_pressure;BME280_temperature;BME280_humidity;BME280_pressure;Samples;Min_cycle;Max_cycle;Signal;HPM_P1;HPM_P2
2024/01/22 00:02:10;;;;;;;3.50;1.43;;;8.10;99.90;;;;;;5056900;28;20667;-57
2024/01/22 00:04:36;;;;;;;2.93;1.40;;;8.10;99.90;;;;;;5056553;28;20453;-57
2024/01/22 00:07:05;;;;;;;1.60;1.50;;;8.10;99.90;;;;;;5057022;28;20448;-58
2024/01/22 00:09:32;;;;;;;4.70;1.97;;;8.10;99.90;;;;;;5055733;28;20822;-57
2024/01/22 00:11:59;;;;;;;3.07;1.37;;;8.10;99.90;;;;;;5056109;28;21013;-57
2024/01/22 00:14:25;;;;;;;2.23;1.23;;;8.10;99.90;;;;;;5056235;28;20453;-57
2024/01/22 00:16:52;;;;;;;2.00;1.23;;;8.20;99.90;;;;;;5057162;28;20481;-57
2024/01/22 00:19:19;;;;;;;4.37;1.57;;;8.20;99.90;;;;;;5057185;28;21072;-57
2024/01/22 00:21:45;;;;;;;1.70;1.60;;;8.20;99.90;;;;;;5058020;28;20967;-57
2024/01/22 00:24:15;;;;;;;3.30;1.50;;;8.30;99.90;;;;;;5057742;28;20468;-57
2024/01/22 00:26:42;;;;;;;2.50;2.30;;;8.30;99.90;;;;;;5058044;28;20446;-57
2024/01/22 00:29:09;;;;;;;3.03;1.90;;;8.30;99.90;;;;;;5057178;28;20913;-57
2024/01/22 00:31:35;;;;;;;3.40;1.40;;;8.30;99.90;;;;;;5057424;28;20563;-57
2024/01/22 00:34:02;;;;;;;3.27;1.77;;;8.30;99.90;;;;;;5057501;28;20453;-57
2024/01/22 00:36:29;;;;;;;2.60;1.90;;;8.40;99.90;;;;;;5057808;28;20486;-57
2024/01/22 00:38:55;;;;;;;5.10;1.87;;;8.40;99.90;;;;;;5055448;28;20453;-58
2024/01/22 00:41:23;;;;;;;5.47;1.70;;;8.40;99.90;;;;;;5054870;28;20869;-58
2024/01/22 00:43:50;;;;;;;3.77;2.07;;;8.40;99.90;;;;;;5055088;28;20453;-58
2024/01/22 00:46:17;;;;;;;3.07;1.67;;;8.50;99.90;;;;;;5054817;28;20441;-57
2024/01/22 00:48:44;;;;;;;5.40;1.70;;;8.50;99.90;;;;;;5054521;28;20970;-57
2024/01/22 00:51:11;;;;;;;2.67;1.13;;;8.50;99.90;;;;;;5054530;28;20470;-57
2024/01/22 00:53:37;;;;;;;5.40;1.60;;;8.50;99.90;;;;;;5053922;28;20485;-58
2024/01/22 00:56:04;;;;;;;3.03;1.80;;;8.50;99.90;;;;;;5054467;28;20442;-58
2024/01/22 00:58:32;;;;;;;2.43;1.40;;;8.50;99.90;;;;;;5053947;28;20452;-57
2024/01/22 01:00:59;;;;;;;2.23;1.30;;;8.50;99.90;;;;;;5053962;28;20850;-57
2024/01/22 01:03:26;;;;;;;3.47;1.77;;;8.60;99.90;;;;;;5054491;28;20449;-57
2024/01/22 01:05:53;;;;;;;2.17;1.57;;;8.50;99.90;;;;;;5054331;28;20452;-57
2024/01/22 01:08:19;;;;;;;2.17;1.40;;;8.60;99.90;;;;;;5054174;28;20450;-57
2024/01/22 01:10:46;;;;;;;3.10;2.03;;;8.60;99.90;;;;;;5054156;28;20499;-57
2024/01/22 01:13:13;;;;;;;2.37;1.30;;;8.70;99.90;;;;;;5054296;28;20445;-57
2024/01/22 01:15:41;;;;;;;4.60;1.80;;;8.80;99.90;;;;;;5054167;28;20454;-57
2024/01/22 01:18:07;;;;;;;1.30;1.20;;;8.80;99.90;;;;;;5054054;28;20485;-57
2024/01/22 01:20:34;;;;;;;1.57;1.47;;;8.80;99.90;;;;;;5054095;28;20442;-57
2024/01/22 01:23:01;;;;;;;2.10;1.37;;;8.80;99.90;;;;;;5053734;28;21018;-57
2024/01/22 01:25:28;;;;;;;2.00;1.27;;;8.80;99.90;;;;;;5053712;28;20444;-57
2024/01/22 01:27:54;;;;;;;4.13;1.60;;;8.90;99.90;;;;;;5053623;28;20990;-57
2024/01/22 01:30:21;;;;;;;1.30;1.20;;;8.90;99.90;;;;;;5054023;28;20450;-57
2024/01/22 01:32:49;;;;;;;2.77;1.37;;;8.80;99.90;;;;;;5053771;28;20492;-57
2024/01/22 01:35:16;;;;;;;1.60;1.10;;;8.80;99.90;;;;;;5053775;28;20449;-57
2024/01/22 01:37:43;;;;;;;2.00;1.30;;;8.90;99.90;;;;;;5053725;28;20481;-57
2024/01/22 01:40:10;;;;;;;2.63;1.20;;;8.90;99.90;;;;;;5053857;28;20452;-57
2024/01/22 01:42:41;;;;;;;3.80;1.00;;;8.90;99.90;;;;;;5053720;28;20465;-58
2024/01/22 01:45:12;;;;;;;1.33;1.17;;;8.90;99.90;;;;;;5053438;28;20923;-57
2024/01/22 01:47:39;;;;;;;2.73;1.40;;;8.90;99.90;;;;;;5053774;28;20788;-57
2024/01/22 01:50:08;;;;;;;1.30;1.10;;;9.00;99.90;;;;;;5053608;28;20441;-57
2024/01/22 01:52:35;;;;;;;3.00;1.97;;;9.00;99.90;;;;;;5053324;28;20523;-57
2024/01/22 01:55:02;;;;;;;0.97;0.90;;;9.00;99.90;;;;;;5053206;28;20966;-57
2024/01/22 01:57:29;;;;;;;1.10;1.00;;;9.00;99.90;;;;;;5053415;28;20481;-57
2024/01/22 01:59:58;;;;;;;2.50;1.10;;;9.00;99.90;;;;;;5053497;28;20444;-57
2024/01/22 02:02:25;;;;;;;3.07;1.47;;;9.00;99.90;;;;;;5053441;28;20469;-57
2024/01/22 02:04:52;;;;;;;2.33;1.50;;;9.10;99.90;;;;;;5052722;28;20450;-57
2024/01/22 02:07:20;;;;;;;4.43;1.20;;;9.10;99.90;;;;;;5053272;28;20441;-57
2024/01/22 02:09:48;;;;;;;1.37;1.27;;;9.10;99.90;;;;;;5053104;28;20959;-58
2024/01/22 02:12:16;;;;;;;3.17;1.83;;;9.10;99.90;;;;;;5052956;28;20847;-58
2024/01/22 02:14:42;;;;;;;1.83;1.07;;;9.20;99.90;;;;;;5053273;28;20441;-57
2024/01/22 02:17:09;;;;;;;1.33;1.23;;;9.20;99.90;;;;;;5053084;28;20488;-57
2024/01/22 02:19:36;;;;;;;3.00;1.13;;;9.30;99.90;;;;;;5053197;28;20453;-58
2024/01/22 02:22:02;;;;;;;7.03;1.27;;;9.30;99.90;;;;;;5052905;28;20468;-57
2024/01/22 02:24:31;;;;;;;2.20;1.20;;;9.20;99.90;;;;;;5053259;28;20445;-57
2024/01/22 02:26:57;;;;;;;1.17;1.07;;;9.20;99.90;;;;;;5053204;28;20441;-57
2024/01/22 02:29:24;;;;;;;1.90;1.17;;;9.30;99.90;;;;;;5053106;28;20468;-57
2024/01/22 02:31:52;;;;;;;3.70;2.03;;;9.30;99.90;;;;;;5053225;28;20469;-57
2024/01/22 02:34:19;;;;;;;2.03;1.27;;;9.30;99.90;;;;;;5053097;28;20446;-58
2024/01/22 02:36:46;;;;;;;1.37;1.27;;;9.30;99.90;;;;;;5052980;28;20572;-57
2024/01/22 02:39:13;;;;;;;1.30;1.07;;;9.30;99.90;;;;;;5053084;28;20458;-57
2024/01/22 02:41:41;;;;;;;1.30;1.20;;;9.40;99.90;;;;;;5052685;28;21014;-57
2024/01/22 02:44:08;;;;;;;2.10;1.13;;;9.50;99.90;;;;;;5053004;28;20441;-58
2024/01/22 02:46:35;;;;;;;5.07;1.17;;;9.50;99.90;;;;;;5052541;28;20795;-57
2024/01/22 02:49:01;;;;;;;4.40;0.93;;;9.60;99.90;;;;;;5052980;28;20445;-57
2024/01/22 02:51:28;;;;;;;2.70;1.50;;;9.60;99.90;;;;;;5052813;28;20462;-58
2024/01/22 02:53:55;;;;;;;5.50;1.50;;;9.60;99.90;;;;;;5053366;28;20430;-58
2024/01/22 02:56:22;;;;;;;1.80;1.30;;;9.60;99.90;;;;;;5053932;28;20444;-58
2024/01/22 02:58:50;;;;;;;2.87;1.17;;;9.70;99.90;;;;;;5053728;28;20489;-58
2024/01/22 03:01:17;;;;;;;1.93;1.20;;;9.70;99.90;;;;;;5053365;28;20462;-58
2024/01/22 03:03:43;;;;;;;3.53;1.10;;;9.70;99.90;;;;;;5053284;28;20452;-58
2024/01/22 03:06:10;;;;;;;1.43;0.80;;;9.80;99.90;;;;;;5053005;28;20448;-57
2024/01/22 03:08:37;;;;;;;4.13;1.00;;;9.80;99.90;;;;;;5053038;28;20448;-58
2024/01/22 03:11:04;;;;;;;1.00;0.80;;;9.80;99.90;;;;;;5052814;28;20523;-58
2024/01/22 03:13:31;;;;;;;3.97;1.27;;;9.80;99.90;;;;;;5052762;28;20456;-57
2024/01/22 03:15:59;;;;;;;1.10;1.00;;;9.90;99.90;;;;;;5053848;28;20457;-57
2024/01/22 03:18:26;;;;;;;2.87;1.23;;;9.90;99.90;;;;;;5056930;28;20836;-58
2024/01/22 03:20:52;;;;;;;1.43;0.80;;;9.90;99.90;;;;;;5056419;28;20444;-57
2024/01/22 03:23:19;;;;;;;2.20;1.10;;;10.00;99.90;;;;;;5056451;28;20491;-57
2024/01/22 03:25:46;;;;;;;5.70;1.27;;;10.00;99.90;;;;;;5056361;28;20445;-57
2024/01/22 03:28:12;;;;;;;2.50;0.80;;;10.00;99.90;;;;;;5056339;28;20446;-58
2024/01/22 03:30:39;;;;;;;1.43;1.10;;;10.00;99.90;;;;;;5056249;28;20453;-57
2024/01/22 03:33:07;;;;;;;3.23;1.00;;;10.10;99.90;;;;;;5056179;28;20545;-58
2024/01/22 03:35:34;;;;;;;1.10;0.70;;;10.10;99.90;;;;;;5056089;28;20453;-58
2024/01/22 03:38:00;;;;;;;1.77;0.83;;;10.10;99.90;;;;;;5056145;28;20492;-59
2024/01/22 03:40:27;;;;;;;1.00;0.60;;;10.20;99.90;;;;;;5056155;28;20456;-59
2024/01/22 03:42:54;;;;;;;1.10;1.00;;;10.10;99.90;;;;;;5056158;28;20477;-59
2024/01/22 03:45:20;;;;;;;2.03;1.10;;;10.10;99.90;;;;;;5056077;28;20458;-59
2024/01/22 03:47:47;;;;;;;2.80;1.13;;;10.00;99.90;;;;;;5056155;28;20448;-59
2024/01/22 03:50:15;;;;;;;3.07;0.83;;;10.00;99.90;;;;;;5055736;28;21017;-59
2024/01/22 03:52:42;;;;;;;3.13;0.90;;;10.00;99.90;;;;;;5055486;28;20477;-58
2024/01/22 03:55:09;;;;;;;0.87;0.83;;;10.00;99.90;;;;;;5055985;28;20446;-59
2024/01/22 03:57:36;;;;;;;2.10;0.97;;;10.00;99.90;;;;;;5055475;28;21007;-59
2024/01/22 04:00:03;;;;;;;1.63;1.40;;;10.10;99.90;;;;;;5056312;28;20450;-59
2024/01/22 04:02:33;;;;;;;1.80;1.00;;;10.00;99.90;;;;;;5055642;28;20468;-59
2024/01/22 04:05:00;;;;;;;2.40;0.90;;;10.00;99.90;;;;;;5055710;28;20456;-59
2024/01/22 04:07:28;;;;;;;0.70;0.70;;;10.00;99.90;;;;;;5055634;28;20433;-59
2024/01/22 04:09:54;;;;;;;0.90;0.90;;;10.00;99.90;;;;;;5055685;28;20489;-59
2024/01/22 04:12:21;;;;;;;1.53;0.80;;;10.00;99.90;;;;;;5055340;28;20469;-59
2024/01/22 04:14:48;;;;;;;1.00;0.90;;;9.90;99.90;;;;;;5055428;28;20446;-59
2024/01/22 04:17:15;;;;;;;2.03;1.00;;;9.90;99.90;;;;;;5055459;28;20805;-59
2024/01/22 04:19:42;;;;;;;1.13;1.00;;;9.90;99.90;;;;;;5055512;28;20441;-59
2024/01/22 04:22:09;;;;;;;1.63;1.03;;;9.90;99.90;;;;;;5055376;28;20465;-59
2024/01/22 04:24:37;;;;;;;1.70;0.70;;;9.90;99.90;;;;;;5055327;28;20507;-59
2024/01/22 04:27:04;;;;;;;1.43;1.07;;;9.90;99.90;;;;;;5054443;28;20954;-59
2024/01/22 04:29:33;;;;;;;0.87;0.87;;;9.90;99.90;;;;;;5055028;28;21050;-59
2024/01/22 04:31:59;;;;;;;1.00;0.90;;;9.90;99.90;;;;;;5054957;28;20469;-59
2024/01/22 04:34:26;;;;;;;1.00;0.90;;;9.90;99.90;;;;;;5055252;28;20441;-59
2024/01/22 04:36:53;;;;;;;1.33;1.23;;;9.90;99.90;;;;;;5055106;28;20438;-59
2024/01/22 04:39:20;;;;;;;2.83;0.90;;;9.90;99.90;;;;;;5055064;28;20490;-59
2024/01/22 04:41:48;;;;;;;1.10;1.00;;;10.00;99.90;;;;;;5054871;28;20500;-59
2024/01/22 04:44:15;;;;;;;2.40;1.07;;;10.00;99.90;;;;;;5054910;28;20447;-59
2024/01/22 04:46:41;;;;;;;3.03;0.93;;;10.00;99.90;;;;;;5054997;28;20446;-59
2024/01/22 04:49:09;;;;;;;2.07;0.90;;;10.00;99.90;;;;;;5054679;28;20442;-59
2024/01/22 04:51:36;;;;;;;4.30;1.13;;;10.00;99.90;;;;;;5054196;28;20980;-59
2024/01/22 04:54:02;;;;;;;2.47;0.73;;;10.00;99.90;;;;;;5054395;28;20912;-58
2024/01/22 04:56:29;;;;;;;2.20;0.87;;;10.00;99.90;;;;;;5054731;28;20524;-58
2024/01/22 04:58:57;;;;;;;2.00;0.70;;;10.10;99.90;;;;;;5054628;28;21004;-58
2024/01/22 05:01:24;;;;;;;0.80;0.80;;;10.10;99.90;;;;;;5054419;28;20984;-58
2024/01/22 05:03:50;;;;;;;1.47;0.97;;;10.10;99.90;;;;;;5054614;28;20473;-58
2024/01/22 05:06:17;;;;;;;1.37;0.80;;;10.20;99.90;;;;;;5054233;28;20843;-58
2024/01/22 05:08:44;;;;;;;0.80;0.70;;;10.20;99.90;;;;;;5054222;28;20947;-58
2024/01/22 05:11:11;;;;;;;1.40;1.03;;;10.20;99.90;;;;;;5054053;28;20964;-58
2024/01/22 05:13:38;;;;;;;2.03;1.50;;;10.30;99.90;;;;;;5054439;28;20441;-59
2024/01/22 05:16:06;;;;;;;1.60;0.80;;;10.40;99.90;;;;;;5054391;28;20510;-59
2024/01/22 05:18:33;;;;;;;2.43;0.90;;;10.50;99.90;;;;;;5054282;28;20928;-59
2024/01/22 05:20:59;;;;;;;4.60;0.80;;;10.60;99.90;;;;;;5054211;28;20473;-59
2024/01/22 05:23:26;;;;;;;1.60;0.83;;;10.60;99.90;;;;;;5053873;28;20964;-59
2024/01/22 05:25:54;;;;;;;1.73;0.50;;;10.60;99.90;;;;;;5054065;28;20484;-59
2024/01/22 05:28:21;;;;;;;0.97;0.50;;;10.60;99.90;;;;;;5054162;28;20450;-59
2024/01/22 05:30:48;;;;;;;1.40;0.77;;;10.70;99.90;;;;;;5053917;28;20453;-59
2024/01/22 05:33:16;;;;;;;1.67;0.87;;;10.70;99.90;;;;;;5053927;28;20449;-59
2024/01/22 05:35:42;;;;;;;0.87;0.60;;;10.70;99.90;;;;;;5053920;28;20450;-58
2024/01/22 05:38:09;;;;;;;1.17;0.60;;;10.70;99.90;;;;;;5054014;28;20485;-58
2024/01/22 05:40:36;;;;;;;0.97;0.70;;;10.80;99.90;;;;;;5053948;28;20449;-58
2024/01/22 05:43:02;;;;;;;1.40;0.60;;;10.80;99.90;;;;;;5053787;28;20453;-58
2024/01/22 05:45:29;;;;;;;1.40;0.50;;;10.80;99.90;;;;;;5054453;28;20484;-58
2024/01/22 05:47:56;;;;;;;0.70;0.70;;;10.90;99.90;;;;;;5053887;28;20449;-58
2024/01/22 05:50:24;;;;;;;1.17;0.97;;;10.90;99.90;;;;;;5053607;28;20449;-58
2024/01/22 05:52:51;;;;;;;0.80;0.50;;;11.00;99.90;;;;;;5053251;28;20480;-58
2024/01/22 05:55:17;;;;;;;0.60;0.50;;;11.00;99.90;;;;;;5053301;28;20442;-57
2024/01/22 05:57:44;;;;;;;1.70;0.90;;;11.00;99.90;;;;;;5053628;28;20446;-58
2024/01/22 06:00:13;;;;;;;1.03;0.50;;;11.00;99.90;;;;;;5053766;28;20450;-58
2024/01/22 06:02:40;;;;;;;3.50;0.60;;;11.10;99.90;;;;;;5053548;28;20469;-57
2024/01/22 06:05:07;;;;;;;1.63;0.70;;;11.20;99.90;;;;;;5053587;28;20442;-57
2024/01/22 06:07:36;;;;;;;0.57;0.30;;;11.20;99.90;;;;;;5053383;28;20441;-57
2024/01/22 06:10:02;;;;;;;1.43;0.40;;;11.20;99.90;;;;;;5053324;28;20888;-58
2024/01/22 06:12:29;;;;;;;1.37;0.70;;;11.30;99.90;;;;;;5053217;28;20473;-57
2024/01/22 06:14:57;;;;;;;0.47;0.47;;;11.40;99.90;;;;;;5053377;28;20441;-57
2024/01/22 06:17:24;;;;;;;0.47;0.40;;;11.40;99.90;;;;;;5053450;28;20453;-58
2024/01/22 06:19:51;;;;;;;0.70;0.50;;;11.40;99.90;;;;;;5053039;28;21021;-57
2024/01/22 06:22:18;;;;;;;2.90;0.47;;;11.50;99.90;;;;;;5053380;28;20469;-58
2024/01/22 06:24:46;;;;;;;1.27;0.50;;;11.40;99.90;;;;;;5053331;28;20484;-58
2024/01/22 06:27:13;;;;;;;2.13;0.63;;;11.50;99.90;;;;;;5053547;28;20445;-57
2024/01/22 06:29:40;;;;;;;1.50;0.80;;;11.40;99.90;;;;;;5053024;28;20939;-57
2024/01/22 06:32:08;;;;;;;0.70;0.47;;;11.50;99.90;;;;;;5053222;28;20485;-57
2024/01/22 06:34:36;;;;;;;1.43;0.50;;;11.50;99.90;;;;;;5053210;28;20952;-57
2024/01/22 06:37:04;;;;;;;0.60;0.30;;;11.50;99.90;;;;;;5053263;28;20442;-58
2024/01/22 06:39:31;;;;;;;0.50;0.50;;;11.60;99.90;;;;;;5053251;28;20485;-58
2024/01/22 06:41:59;;;;;;;0.53;0.53;;;11.60;99.90;;;;;;5053264;28;20462;-57
2024/01/22 06:44:25;;;;;;;1.33;0.50;;;11.60;99.90;;;;;;5053385;28;20502;-57
2024/01/22 06:46:52;;;;;;;0.50;0.50;;;11.60;99.90;;;;;;5053048;28;20449;-57
2024/01/22 06:49:19;;;;;;;4.40;0.53;;;11.60;99.90;;;;;;5052999;28;21050;-58
2024/01/22 06:51:47;;;;;;;1.70;0.53;;;11.60;99.90;;;;;;5055380;28;20512;-58
2024/01/22 06:54:13;;;;;;;0.90;0.53;;;11.60;99.90;;;;;;5057774;28;20916;-57
2024/01/22 06:56:40;;;;;;;0.80;0.40;;;11.60;99.90;;;;;;5057109;28;20456;-57
2024/01/22 06:59:08;;;;;;;0.87;0.40;;;11.60;99.90;;;;;;5057225;28;20587;-57
2024/01/22 07:01:35;;;;;;;1.17;0.73;;;11.70;99.90;;;;;;5057622;28;20469;-57
2024/01/22 07:04:03;;;;;;;0.80;0.50;;;11.60;99.90;;;;;;5056985;28;20456;-57
2024/01/22 07:06:30;;;;;;;1.33;0.50;;;11.70;99.90;;;;;;5056942;28;20865;-58
2024/01/22 07:08:56;;;;;;;2.37;0.67;;;11.70;99.90;;;;;;5056512;28;20948;-58
2024/01/22 07:11:23;;;;;;;0.60;0.60;;;11.80;99.90;;;;;;5056635;28;20480;-58
2024/01/22 07:13:51;;;;;;;1.43;0.57;;;11.80;99.90;;;;;;5056303;28;20970;-57
2024/01/22 07:16:19;;;;;;;1.13;0.70;;;11.80;99.90;;;;;;5056742;28;20456;-58
2024/01/22 07:18:45;;;;;;;1.00;0.47;;;11.80;99.90;;;;;;5056541;28;20488;-58
2024/01/22 07:21:12;;;;;;;1.07;0.60;;;11.90;99.90;;;;;;5056740;28;20672;-58
2024/01/22 07:23:39;;;;;;;0.70;0.50;;;11.90;99.90;;;;;;5057003;28;20445;-58
2024/01/22 07:26:06;;;;;;;0.93;0.67;;;11.90;99.90;;;;;;5056772;28;20449;-58
2024/01/22 07:28:32;;;;;;;2.40;0.80;;;11.90;99.90;;;;;;5057056;28;20450;-58
2024/01/22 07:30:58;;;;;;;2.73;0.60;;;11.90;99.90;;;;;;5056802;28;20834;-57
2024/01/22 07:33:26;;;;;;;0.67;0.50;;;11.90;99.90;;;;;;5056823;28;20449;-57
2024/01/22 07:35:53;;;;;;;0.80;0.60;;;12.00;99.90;;;;;;5056622;28;20207;-57
2024/01/22 07:38:20;;;;;;;1.47;0.40;;;12.00;99.90;;;;;;5055940;28;20489;-58
2024/01/22 07:40:47;;;;;;;0.67;0.50;;;12.00;99.90;;;;;;5055871;28;20445;-58
2024/01/22 07:43:14;;;;;;;0.70;0.70;;;11.90;99.90;;;;;;5056474;28;20441;-57
2024/01/22 07:45:41;;;;;;;0.53;0.47;;;11.80;99.90;;;;;;5056367;28;20451;-58
2024/01/22 07:48:07;;;;;;;1.80;0.70;;;11.70;99.90;;;;;;5056475;28;20449;-57
2024/01/22 07:50:36;;;;;;;0.80;0.50;;;11.70;99.90;;;;;;5056505;28;20442;-57
2024/01/22 07:53:02;;;;;;;0.83;0.80;;;11.60;99.90;;;;;;5056381;28;20535;-57
2024/01/22 07:55:29;;;;;;;1.30;0.50;;;11.50;99.90;;;;;;5056444;28;20815;-58
2024/01/22 07:57:56;;;;;;;1.27;0.40;;;11.50;99.90;;;;;;5057057;28;20447;-58
2024/01/22 08:00:22;;;;;;;0.73;0.53;;;11.60;99.90;;;;;;5056800;28;20485;-58
2024/01/22 08:02:49;;;;;;;0.80;0.50;;;11.50;99.90;;;;;;5056260;28;20465;-57
2024/01/22 08:05:16;;;;;;;0.97;0.70;;;11.50;99.90;;;;;;5057633;28;20443;-58
2024/01/22 08:07:44;;;;;;;2.90;0.67;;;11.40;99.90;;;;;;5057784;28;20454;-57
2024/01/22 08:10:10;;;;;;;0.40;0.40;;;11.40;99.90;;;;;;5057235;28;21005;-57
2024/01/22 08:12:37;;;;;;;1.13;0.70;;;11.40;99.90;;;;;;5057111;28;20461;-57
2024/01/22 08:15:04;;;;;;;0.90;0.53;;;11.40;99.90;;;;;;5057868;28;20207;-58
2024/01/22 08:17:31;;;;;;;1.23;0.80;;;11.30;99.90;;;;;;5057893;28;20820;-57
2024/01/22 08:19:58;;;;;;;1.40;0.83;;;11.40;99.90;;;;;;5055633;28;20469;-58
2024/01/22 08:22:25;;;;;;;0.93;0.70;;;11.40;99.90;;;;;;5055331;28;20461;-58
2024/01/22 08:24:53;;;;;;;2.80;0.60;;;11.40;99.90;;;;;;5056260;28;20458;-58
2024/01/22 08:27:19;;;;;;;2.13;0.63;;;11.50;99.90;;;;;;5055337;28;20445;-58
2024/01/22 08:29:47;;;;;;;2.70;0.80;;;11.50;99.90;;;;;;5054925;28;20956;-57
2024/01/22 08:32:13;;;;;;;1.40;0.80;;;11.50;99.90;;;;;;5054964;28;20868;-57
2024/01/22 08:34:41;;;;;;;2.03;0.50;;;11.60;99.90;;;;;;5054961;28;20429;-57
2024/01/22 08:37:08;;;;;;;1.10;0.70;;;11.60;99.90;;;;;;5055071;28;20452;-58
2024/01/22 08:39:34;;;;;;;0.73;0.73;;;11.60;99.90;;;;;;5055543;28;20513;-57
2024/01/22 08:42:02;;;;;;;1.27;1.10;;;11.60;99.90;;;;;;5054678;28;20968;-57
2024/01/22 08:44:29;;;;;;;0.73;0.50;;;11.60;99.90;;;;;;5054892;28;20453;-57
2024/01/22 08:46:55;;;;;;;0.80;0.70;;;11.60;99.90;;;;;;5054996;28;20450;-58
2024/01/22 08:49:21;;;;;;;2.23;0.60;;;11.70;99.90;;;;;;5054655;28;20448;-58
2024/01/22 08:51:48;;;;;;;0.80;0.70;;;11.70;99.90;;;;;;5055050;28;20620;-58
2024/01/22 08:54:15;;;;;;;1.00;0.53;;;11.70;99.90;;;;;;5054655;28;20810;-59
2024/01/22 08:56:41;;;;;;;2.90;0.80;;;11.80;99.90;;;;;;5054699;28;20442;-58
2024/01/22 08:59:10;;;;;;;3.30;0.83;;;11.90;99.90;;;;;;5054636;28;20473;-58
2024/01/22 09:01:36;;;;;;;2.30;1.00;;;11.90;99.90;;;;;;5054214;28;20831;-58
2024/01/22 09:04:03;;;;;;;1.40;0.83;;;12.00;99.90;;;;;;5054588;28;20445;-58
2024/01/22 09:06:30;;;;;;;1.63;0.90;;;12.10;99.90;;;;;;5054615;28;20446;-58
2024/01/22 09:08:56;;;;;;;2.63;0.80;;;12.10;99.90;;;;;;5054491;28;20441;-58
2024/01/22 09:11:23;;;;;;;1.13;0.57;;;12.00;99.90;;;;;;5054292;28;20462;-58
2024/01/22 09:13:50;;;;;;;3.13;1.20;;;12.10;99.90;;;;;;5053897;28;20445;-58
2024/01/22 09:16:19;;;;;;;9.00;1.00;;;12.10;99.90;;;;;;5054309;28;20453;-58
2024/01/22 09:18:45;;;;;;;4.80;1.03;;;12.20;99.90;;;;;;5054177;28;20449;-58
2024/01/22 09:21:12;;;;;;;3.83;1.10;;;12.30;99.90;;;;;;5053785;28;20461;-58
2024/01/22 09:23:39;;;;;;;4.70;1.60;;;12.30;99.90;;;;;;5053920;28;20441;-58
2024/01/22 09:26:06;;;;;;;5.87;1.50;;;12.40;99.90;;;;;;5054608;28;20448;-58
2024/01/22 09:28:33;;;;;;;3.33;1.10;;;12.40;99.90;;;;;;5054638;28;20966;-58
2024/01/22 09:30:59;;;;;;;3.70;1.20;;;12.50;99.90;;;;;;5054171;28;21002;-58
2024/01/22 09:33:28;;;;;;;3.07;1.17;;;12.50;99.90;;;;;;5054148;28;20441;-58
2024/01/22 09:35:55;;;;;;;2.60;2.10;;;12.50;99.90;;;;;;5054159;28;20452;-58
2024/01/22 09:38:22;;;;;;;2.50;1.30;;;12.50;99.90;;;;;;5054025;28;20462;-58
2024/01/22 09:40:50;;;;;;;5.93;1.13;;;12.50;99.90;;;;;;5053598;28;21060;-58
2024/01/22 09:43:18;;;;;;;10.50;1.20;;;12.60;99.90;;;;;;5053796;28;20485;-58
2024/01/22 09:45:46;;;;;;;6.60;1.10;;;12.60;99.90;;;;;;5053859;28;20457;-58
2024/01/22 09:48:13;;;;;;;4.53;1.20;;;12.60;99.90;;;;;;5053834;28;20453;-58
2024/01/22 09:50:41;;;;;;;1.70;1.13;;;12.70;99.90;;;;;;5053430;28;20478;-58
2024/01/22 09:53:10;;;;;;;8.17;1.50;;;12.70;99.90;;;;;;5053125;28;20468;-58
2024/01/22 09:55:39;;;;;;;3.17;1.00;;;12.70;99.90;;;;;;5054415;28;20843;-58
2024/01/22 09:58:07;;;;;;;3.17;1.20;;;12.70;99.90;;;;;;5053400;28;20457;-58
2024/01/22 10:00:35;;;;;;;2.60;1.37;;;12.80;99.90;;;;;;5053510;28;20481;-58
2024/01/22 10:03:03;;;;;;;6.10;1.33;;;12.80;99.90;;;;;;5053476;28;20457;-58
2024/01/22 10:05:30;;;;;;;6.30;1.57;;;12.90;99.90;;;;;;5053570;28;20441;-58
2024/01/22 10:07:58;;;;;;;3.67;1.13;;;12.90;99.90;;;;;;5053536;28;20456;-58
2024/01/22 10:10:25;;;;;;;5.30;1.27;;;12.90;99.90;;;;;;5053437;28;20843;-58
2024/01/22 10:12:58;;;;;;;3.40;1.37;;;12.90;99.90;;;;;;5053241;28;20469;-58
2024/01/22 10:15:26;;;;;;;7.43;2.10;;;12.90;99.90;;;;;;5053406;28;20441;-58
2024/01/22 10:17:53;;;;;;;4.33;1.40;;;12.90;99.90;;;;;;5053409;28;20446;-58
2024/01/22 10:20:23;;;;;;;4.40;1.13;;;12.90;99.90;;;;;;5053359;28;20481;-58
2024/01/22 10:23:01;;;;;;;4.23;1.43;;;12.90;99.90;;;;;;5053303;28;20469;-58
2024/01/22 10:25:29;;;;;;;3.50;0.93;;;13.00;99.90;;;;;;5052421;28;20912;-58
2024/01/22 10:28:08;;;;;;;3.57;1.00;;;13.00;99.90;;;;;;5053281;28;20536;-58
2024/01/22 10:30:36;;;;;;;2.87;0.70;;;12.90;99.90;;;;;;5053339;28;20425;-58
2024/01/22 10:33:13;;;;;;;1.40;0.70;;;12.90;99.90;;;;;;5053379;28;20472;-58
2024/01/22 10:35:40;;;;;;;3.00;1.00;;;13.00;99.90;;;;;;5053193;28;20441;-58
2024/01/22 10:38:09;;;;;;;2.40;0.70;;;13.00;99.90;;;;;;5053166;28;20465;-58
2024/01/22 10:40:36;;;;;;;2.37;1.10;;;13.00;99.90;;;;;;5053157;28;20872;-58
2024/01/22 10:43:21;;;;;;;3.77;0.70;;;13.00;99.90;;;;;;5053123;28;20474;-58
2024/01/22 10:45:49;;;;;;;3.37;0.90;;;13.10;99.90;;;;;;5053169;28;20430;-58
2024/01/22 10:48:17;;;;;;;1.27;0.50;;;13.10;99.90;;;;;;5053218;28;20450;-58
2024/01/22 10:50:44;;;;;;;1.57;0.77;;;13.00;99.90;;;;;;5053001;28;20522;-58
2024/01/22 10:53:13;;;;;;;2.60;0.50;;;13.00;99.90;;;;;;5053207;28;20461;-58
2024/01/22 10:55:39;;;;;;;2.30;0.70;;;12.90;99.90;;;;;;5052923;28;20450;-58
2024/01/22 10:58:15;;;;;;;3.60;0.70;;;13.00;99.90;;;;;;5053097;28;20480;-58
2024/01/22 11:00:44;;;;;;;3.90;0.70;;;12.90;99.90;;;;;;5052958;28;20461;-58
2024/01/22 11:03:14;;;;;;;2.00;0.90;;;13.00;99.90;;;;;;5053028;28;20473;-58
2024/01/22 11:05:45;;;;;;;2.50;0.77;;;13.00;99.90;;;;;;5053020;28;20418;-58
2024/01/22 11:08:18;;;;;;;2.20;0.70;;;12.90;99.90;;;;;;5053137;28;20469;-58
2024/01/22 11:10:46;;;;;;;2.03;0.63;;;13.00;99.90;;;;;;5053321;28;20437;-58
2024/01/22 11:13:14;;;;;;;2.40;0.93;;;12.90;99.90;;;;;;5053675;28;20449;-58
2024/01/22 11:15:41;;;;;;;3.27;0.70;;;13.00;99.90;;;;;;5054171;28;20473;-58
2024/01/22 11:18:10;;;;;;;4.07;1.00;;;13.00;99.90;;;;;;5053160;28;20445;-58
2024/01/22 11:20:37;;;;;;;3.73;0.87;;;12.90;99.90;;;;;;5052960;28;20493;-58
2024/01/22 11:23:08;;;;;;;1.67;0.97;;;12.90;99.90;;;;;;5052554;28;20989;-58
2024/01/22 11:25:36;;;;;;;3.70;1.10;;;12.90;99.90;;;;;;5052370;28;20474;-58
2024/01/22 11:28:04;;;;;;;2.30;0.70;;;12.90;99.90;;;;;;5052769;28;20478;-58
2024/01/22 11:30:36;;;;;;;1.87;0.73;;;12.80;99.90;;;;;;5052822;28;20433;-58
2024/01/22 11:33:03;;;;;;;1.83;0.97;;;12.80;99.90;;;;;;5052472;28;20551;-58
2024/01/22 11:35:34;;;;;;;2.00;0.53;;;12.80;99.90;;;;;;5052606;28;20456;-58
2024/01/22 11:38:02;;;;;;;7.10;2.20;;;12.80;99.90;;;;;;5055276;28;20446;-58
2024/01/22 11:40:48;;;;;;;0.90;0.50;;;12.80;99.90;;;;;;5056162;28;20484;-58
2024/01/22 11:43:16;;;;;;;1.57;0.50;;;12.80;99.90;;;;;;5056140;28;20425;-58
2024/01/22 11:45:44;;;;;;;2.93;0.70;;;12.70;99.90;;;;;;5056146;28;20495;-58
2024/01/22 11:48:17;;;;;;;3.33;0.70;;;12.60;99.90;;;;;;5056258;28;20441;-58
2024/01/22 11:50:56;;;;;;;3.97;0.93;;;12.60;99.90;;;;;;5055934;28;20476;-58
2024/01/22 11:53:23;;;;;;;2.10;0.70;;;12.50;99.90;;;;;;5055553;28;20457;-60
2024/01/22 11:56:01;;;;;;;9.10;1.13;;;12.40;99.90;;;;;;5055619;28;20943;-59
2024/01/22 11:58:28;;;;;;;4.37;1.10;;;12.20;99.90;;;;;;5055922;28;20461;-60
2024/01/22 12:00:55;;;;;;;3.27;1.10;;;12.10;99.90;;;;;;5055698;28;20485;-59
2024/01/22 12:03:24;;;;;;;4.27;0.90;;;12.00;99.90;;;;;;5055948;28;20449;-59
2024/01/22 12:05:59;;;;;;;5.03;1.20;;;12.00;99.90;;;;;;5055681;28;20473;-59
2024/01/22 12:08:25;;;;;;;2.73;0.80;;;12.10;99.90;;;;;;5055766;28;20422;-59
2024/01/22 12:10:58;;;;;;;4.70;0.87;;;12.20;99.90;;;;;;5055597;28;20441;-59
2024/01/22 12:13:26;;;;;;;2.40;0.83;;;12.50;99.90;;;;;;5055324;28;20919;-59
2024/01/22 12:15:57;;;;;;;6.23;1.13;;;12.70;99.90;;;;;;5055548;28;20450;-59
2024/01/22 12:18:24;;;;;;;3.17;1.17;;;12.90;99.90;;;;;;5055637;28;20862;-59
2024/01/22 12:20:51;;;;;;;3.80;1.13;;;13.10;99.90;;;;;;5055365;28;20515;-59
2024/01/22 12:23:29;;;;;;;4.53;1.50;;;13.50;99.90;;;;;;5055490;28;20449;-58
2024/01/22 12:25:56;;;;;;;7.33;1.40;;;13.70;99.90;;;;;;5055206;28;20896;-58
2024/01/22 12:28:24;;;;;;;4.03;1.73;;;13.70;99.90;;;;;;5055277;28;20485;-58
2024/01/22 12:31:00;;;;;;;11.77;2.43;;;13.50;99.90;;;;;;5055345;28;20464;-58
2024/01/22 12:33:28;;;;;;;5.87;1.80;;;13.20;99.90;;;;;;5055832;28;20465;-58
2024/01/22 12:36:06;;;;;;;11.03;2.03;;;13.10;99.90;;;;;;5055179;28;20457;-58
2024/01/22 12:38:35;;;;;;;14.07;2.20;;;13.00;99.90;;;;;;5055530;28;20915;-58
2024/01/22 12:41:08;;;;;;;8.87;2.27;;;12.90;99.90;;;;;;5055316;28;20490;-58
2024/01/22 12:43:35;;;;;;;18.40;3.13;;;13.00;99.90;;;;;;5055456;28;20426;-58
2024/01/22 12:46:08;;;;;;;7.00;2.00;;;13.30;99.90;;;;;;5055791;28;20441;-58
2024/01/22 12:48:34;;;;;;;8.77;2.03;;;13.60;99.90;;;;;;5054866;28;20442;-58
2024/01/22 12:51:01;;;;;;;18.70;2.53;;;13.80;99.90;;;;;;5055326;28;20488;-58
2024/01/22 12:53:28;;;;;;;13.93;2.50;;;14.00;99.90;;;;;;5054747;28;20461;-58